createdAt,value
2022-09-04T00:02:00.984Z,18.40
2022-09-04T00:04:44.822Z,18.60
2022-09-04T00:07:20.668Z,18.60
2022-09-04T00:10:25.893Z,18.30
2022-09-04T00:13:17.335Z,18.60
2022-09-04T00:16:13.245Z,18.60
2022-09-04T00:19:39.421Z,18.60
2022-09-04T00:22:39.554Z,19.70
2022-09-04T00:25:27.665Z,18.40
2022-09-04T00:28:27.452Z,18.40
2022-09-04T00:31:10.306Z,18.60
2022-09-04T00:34:07.191Z,18.50
2022-09-04T00:36:39.376Z,18.30
2022-09-04T00:39:35.961Z,18.60
2022-09-04T00:42:13.723Z,18.50
2022-09-04T00:44:57.965Z,18.30
2022-09-04T00:47:52.496Z,18.60
2022-09-04T00:51:03.167Z,18.10
2022-09-04T00:54:13.254Z,18.70
2022-09-04T00:56:52.158Z,18.50
2022-09-04T00:59:27.960Z,18.80
2022-09-04T01:02:02.677Z,20.50
2022-09-04T01:05:50.111Z,18.60
2022-09-04T01:08:47.718Z,18.40
2022-09-04T01:11:43.391Z,18.30
2022-09-04T01:14:48.584Z,18.40
2022-09-04T01:17:41.097Z,18.40
2022-09-04T01:20:43.580Z,18.70
2022-09-04T01:24:07.196Z,18.50
2022-09-04T01:27:03.345Z,18.50
2022-09-04T01:29:51.705Z,18.70
2022-09-04T01:33:15.161Z,18.20
2022-09-04T01:36:06.024Z,18.30
2022-09-04T01:38:56.281Z,18.20
2022-09-04T01:41:55.371Z,18.30
2022-09-04T01:44:23.542Z,18.10
2022-09-04T01:47:04.353Z,18.50
2022-09-04T01:50:02.200Z,18.30
2022-09-04T01:52:53.879Z,18.30
2022-09-04T01:55:45.200Z,18.30
2022-09-04T01:59:03.122Z,18.20
2022-09-04T02:01:39.552Z,18.20
2022-09-04T02:04:28.244Z,18.00
2022-09-04T02:07:14.400Z,18.00
2022-09-04T02:10:29.017Z,18.20
2022-09-04T02:13:34.138Z,18.00
2022-09-04T02:16:22.131Z,18.20
2022-09-04T02:19:06.776Z,18.10
2022-09-04T02:21:56.216Z,17.80
2022-09-04T02:25:07.908Z,18.10
2022-09-04T02:28:16.325Z,18.00
2022-09-04T02:31:05.647Z,17.60
2022-09-04T02:34:19.074Z,18.20
2022-09-04T02:37:16.534Z,18.20
2022-09-04T02:40:11.268Z,17.90
2022-09-04T02:42:53.212Z,17.80
2022-09-04T02:45:45.187Z,18.00
2022-09-04T02:48:43.047Z,18.10
2022-09-04T02:51:34.371Z,18.00
2022-09-04T02:55:04.858Z,17.80
2022-09-04T02:58:01.844Z,18.00
2022-09-04T03:01:07.949Z,18.00
2022-09-04T03:03:52.001Z,18.00
2022-09-04T03:06:50.341Z,17.70
2022-09-04T03:10:14.047Z,17.90
2022-09-04T03:13:01.806Z,18.00
2022-09-04T03:15:46.756Z,17.90
2022-09-04T03:18:30.759Z,17.90
2022-09-04T03:21:14.632Z,17.60
2022-09-04T03:24:17.455Z,18.40
2022-09-04T03:27:01.861Z,17.60
2022-09-04T03:30:06.441Z,17.80
2022-09-04T03:32:51.921Z,17.80
2022-09-04T03:36:03.809Z,17.80
2022-09-04T03:38:51.832Z,17.90
2022-09-04T03:41:44.081Z,17.40
2022-09-04T03:44:22.958Z,17.50
2022-09-04T03:47:26.678Z,17.90
2022-09-04T03:50:12.515Z,17.80
2022-09-04T03:53:14.526Z,17.50
2022-09-04T03:56:32.650Z,17.70
2022-09-04T03:59:54.109Z,17.70
2022-09-04T04:02:41.578Z,17.10
2022-09-04T04:05:39.818Z,17.60
2022-09-04T04:08:37.725Z,17.60
2022-09-04T04:11:43.253Z,17.30
2022-09-04T04:14:38.823Z,17.60
2022-09-04T04:17:41.733Z,17.60
2022-09-04T04:20:56.232Z,17.60
2022-09-04T04:23:57.966Z,16.40
2022-09-04T04:26:40.499Z,17.50
2022-09-04T04:29:48.619Z,17.50
2022-09-04T04:32:18.121Z,17.60
2022-09-04T04:35:11.074Z,17.60
2022-09-04T04:38:28.694Z,17.50
2022-09-04T04:41:16.391Z,17.50
2022-09-04T04:44:11.217Z,17.40
2022-09-04T04:47:09.767Z,17.50
2022-09-04T04:50:33.139Z,17.40
2022-09-04T04:53:15.258Z,17.50
2022-09-04T04:56:15.510Z,17.90
2022-09-04T04:59:20.372Z,17.30
2022-09-04T05:02:21.333Z,17.20
2022-09-04T05:05:13.642Z,17.00
2022-09-04T05:08:07.675Z,17.30
2022-09-04T05:10:42.884Z,17.20
2022-09-04T05:13:45.769Z,17.30
2022-09-04T05:16:36.265Z,17.30
2022-09-04T05:20:10.955Z,18.00
2022-09-04T05:22:53.206Z,17.30
2022-09-04T05:25:37.104Z,17.30
2022-09-04T05:28:31.818Z,17.20
2022-09-04T05:31:46.442Z,17.30
2022-09-04T05:34:54.526Z,17.30
2022-09-04T05:37:29.635Z,17.30
2022-09-04T05:40:15.424Z,17.30
2022-09-04T05:43:14.318Z,17.30
2022-09-04T05:46:16.273Z,17.40
2022-09-04T05:49:03.457Z,17.30
2022-09-04T05:52:13.233Z,16.00
2022-09-04T05:55:05.240Z,16.20
2022-09-04T05:57:57.067Z,16.90
2022-09-04T06:00:26.593Z,16.70
2022-09-04T06:03:21.891Z,16.90
2022-09-04T06:06:35.590Z,17.10
2022-09-04T06:09:16.923Z,18.10
2022-09-04T06:12:10.181Z,17.10
2022-09-04T06:14:49.041Z,17.10
2022-09-04T06:17:54.177Z,17.00
2022-09-04T06:20:56.344Z,17.20
2022-09-04T06:23:56.315Z,16.60
2022-09-04T06:27:11.101Z,16.30
2022-09-04T06:29:51.408Z,17.10
2022-09-04T06:32:36.023Z,16.90
2022-09-04T06:35:27.305Z,17.10
2022-09-04T06:38:20.182Z,17.10
2022-09-04T06:41:32.193Z,17.00
2022-09-04T06:44:38.488Z,17.00
2022-09-04T06:47:22.643Z,17.30
2022-09-04T06:50:05.957Z,17.00
2022-09-04T06:53:01.013Z,17.00
2022-09-04T06:56:12.296Z,16.90
2022-09-04T06:59:13.773Z,16.60
2022-09-04T07:02:26.046Z,17.00
2022-09-04T07:04:56.201Z,17.20
2022-09-04T07:07:53.717Z,18.00
2022-09-04T07:10:59.679Z,17.10
2022-09-04T07:14:16.495Z,17.00
2022-09-04T07:17:19.748Z,17.00
2022-09-04T07:20:08.466Z,17.00
2022-09-04T07:23:32.630Z,17.00
2022-09-04T07:26:30.414Z,17.10
2022-09-04T07:29:29.557Z,17.20
2022-09-04T07:32:30.623Z,17.00
2022-09-04T07:35:25.111Z,17.10
2022-09-04T07:38:04.954Z,17.10
2022-09-04T07:40:43.662Z,17.10
2022-09-04T07:43:42.673Z,16.60
2022-09-04T07:46:33.579Z,17.30
2022-09-04T07:49:17.282Z,17.00
2022-09-04T07:52:08.844Z,17.10
2022-09-04T07:55:08.100Z,17.40
2022-09-04T07:58:13.268Z,17.30
2022-09-04T08:01:01.864Z,17.50
2022-09-04T08:03:53.748Z,17.20
2022-09-04T08:06:34.107Z,17.40
2022-09-04T08:09:36.517Z,17.30
2022-09-04T08:12:28.659Z,17.90
2022-09-04T08:15:43.190Z,17.70
2022-09-04T08:18:58.375Z,17.50
2022-09-04T08:21:32.006Z,17.50
2022-09-04T08:24:29.312Z,17.50
2022-09-04T08:27:09.374Z,17.90
2022-09-04T08:30:04.656Z,18.90
2022-09-04T08:33:04.180Z,17.80
2022-09-04T08:36:10.419Z,18.10
2022-09-04T08:38:55.456Z,18.60
2022-09-04T08:42:05.834Z,19.90
2022-09-04T08:45:06.971Z,18.70
2022-09-04T08:47:54.529Z,18.10
2022-09-04T08:50:37.825Z,18.90
2022-09-04T08:53:47.418Z,19.70
2022-09-04T08:56:42.385Z,18.80
2022-09-04T09:00:12.684Z,18.60
2022-09-04T09:03:29.646Z,18.30
2022-09-04T09:06:24.422Z,18.50
2022-09-04T09:09:12.708Z,18.50
2022-09-04T09:12:09.054Z,18.30
2022-09-04T09:15:11.322Z,17.90
2022-09-04T09:17:53.921Z,18.20
2022-09-04T09:20:36.571Z,18.60
2022-09-04T09:23:58.154Z,18.70
2022-09-04T09:26:29.536Z,18.80
2022-09-04T09:29:27.968Z,19.00
2022-09-04T09:32:22.702Z,19.00
2022-09-04T09:35:46.343Z,18.60
2022-09-04T09:38:34.809Z,18.90
2022-09-04T09:41:10.630Z,21.20
2022-09-04T09:44:34.118Z,19.20
2022-09-04T09:47:26.541Z,19.40
2022-09-04T09:50:18.094Z,18.60
2022-09-04T09:52:57.338Z,18.30
2022-09-04T09:55:51.432Z,18.40
2022-09-04T09:58:37.924Z,20.20
2022-09-04T10:01:26.081Z,16.90
2022-09-04T10:04:34.122Z,18.30
2022-09-04T10:07:42.627Z,18.20
2022-09-04T10:10:30.990Z,18.20
2022-09-04T10:13:22.191Z,18.40
2022-09-04T10:16:32.386Z,19.00
2022-09-04T10:19:40.571Z,19.00
2022-09-04T10:22:44.452Z,20.50
2022-09-04T10:25:51.050Z,17.80
2022-09-04T10:28:59.521Z,18.50
2022-09-04T10:31:26.967Z,18.40
2022-09-04T10:34:24.879Z,18.30
2022-09-04T10:37:27.069Z,18.40
2022-09-04T10:40:18.678Z,17.80
2022-09-04T10:43:14.686Z,18.30
2022-09-04T10:45:57.307Z,18.40
2022-09-04T10:48:58.769Z,20.50
2022-09-04T10:51:40.613Z,19.20
2022-09-04T10:54:18.090Z,18.50
2022-09-04T10:57:22.553Z,18.20
2022-09-04T10:59:59.234Z,18.70
2022-09-04T11:03:13.816Z,19.90
2022-09-04T11:06:12.663Z,18.50
2022-09-04T11:09:19.423Z,18.80
2022-09-04T11:12:31.879Z,18.70
2022-09-04T11:15:48.046Z,18.60
2022-09-04T11:18:38.123Z,19.20
2022-09-04T11:22:05.539Z,19.10
2022-09-04T11:25:19.440Z,19.00
2022-09-04T11:28:47.321Z,20.00
2022-09-04T11:31:48.574Z,20.00
2022-09-04T11:34:52.468Z,19.90
2022-09-04T11:37:45.756Z,19.70
2022-09-04T11:40:55.280Z,21.90
2022-09-04T11:44:04.334Z,21.10
2022-09-04T11:47:15.087Z,21.00
2022-09-04T11:50:21.913Z,20.00
2022-09-04T11:53:25.889Z,20.10
2022-09-04T11:56:11.706Z,20.60
2022-09-04T11:59:16.922Z,22.10
2022-09-04T12:02:15.928Z,22.20
2022-09-04T12:05:08.657Z,23.20
2022-09-04T12:08:05.095Z,24.40
2022-09-04T12:10:55.837Z,24.40
2022-09-04T12:13:54.137Z,24.80
2022-09-04T12:16:42.240Z,22.70
2022-09-04T12:19:31.649Z,22.40
2022-09-04T12:22:38.814Z,22.00
2022-09-04T12:26:03.480Z,23.70
2022-09-04T12:29:04.122Z,23.90
2022-09-04T12:32:09.362Z,26.50
2022-09-04T12:35:03.297Z,26.70
2022-09-04T12:37:45.115Z,27.10
2022-09-04T12:40:54.426Z,25.60
2022-09-04T12:43:54.624Z,25.70
2022-09-04T12:46:58.514Z,25.70
2022-09-04T12:49:39.590Z,25.70
2022-09-04T12:52:52.326Z,25.70
2022-09-04T12:55:52.973Z,26.00
2022-09-04T12:58:47.929Z,26.90
2022-09-04T13:01:53.536Z,27.00
2022-09-04T13:04:32.306Z,27.30
2022-09-04T13:07:16.239Z,28.40
2022-09-04T13:09:55.177Z,27.60
2022-09-04T13:13:22.289Z,27.80
2022-09-04T13:16:16.523Z,26.10
2022-09-04T13:19:11.947Z,25.50
2022-09-04T13:22:10.619Z,24.50
2022-09-04T13:24:44.593Z,25.20
2022-09-04T13:27:26.821Z,25.20
2022-09-04T13:30:21.688Z,25.10
2022-09-04T13:33:49.301Z,24.70
2022-09-04T13:36:25.300Z,26.80
2022-09-04T13:39:26.127Z,26.90
2022-09-04T13:42:25.232Z,28.20
2022-09-04T13:45:13.082Z,28.70
2022-09-04T13:47:50.269Z,26.50
2022-09-04T13:50:27.673Z,27.80
2022-09-04T13:52:57.981Z,26.50
2022-09-04T13:55:39.682Z,27.10
2022-09-04T13:58:28.327Z,27.20
2022-09-04T14:01:00.385Z,28.00
2022-09-04T14:03:52.201Z,28.10
2022-09-04T14:06:24.336Z,28.90
2022-09-04T14:09:04.946Z,26.50
2022-09-04T14:12:03.070Z,28.80
2022-09-04T14:15:13.675Z,27.00
2022-09-04T14:17:56.693Z,27.20
2022-09-04T14:20:40.689Z,27.20
2022-09-04T14:23:38.974Z,27.20
2022-09-04T14:26:29.162Z,27.00
2022-09-04T14:29:07.713Z,26.60
2022-09-04T14:32:18.773Z,26.90
2022-09-04T14:35:22.100Z,25.60
2022-09-04T14:38:41.295Z,25.70
2022-09-04T14:41:21.096Z,25.00
2022-09-04T14:44:39.775Z,25.00
2022-09-04T14:47:25.378Z,25.00
2022-09-04T14:49:57.603Z,24.80
2022-09-04T14:52:37.913Z,25.50
2022-09-04T14:55:33.356Z,25.70
2022-09-04T14:58:20.152Z,25.70
2022-09-04T15:01:19.539Z,26.30
2022-09-04T15:03:58.425Z,26.40
2022-09-04T15:07:12.464Z,26.30
2022-09-04T15:09:44.672Z,25.40
2022-09-04T15:12:25.129Z,26.00
2022-09-04T15:15:16.196Z,26.10
2022-09-04T15:17:54.283Z,26.30
2022-09-04T15:20:33.133Z,26.30
2022-09-04T15:23:19.539Z,25.90
2022-09-04T15:26:30.319Z,26.00
2022-09-04T15:29:20.349Z,25.80
2022-09-04T15:31:47.556Z,26.10
2022-09-04T15:34:25.011Z,26.00
2022-09-04T15:36:52.326Z,26.40
2022-09-04T15:39:36.874Z,26.00
2022-09-04T15:42:04.040Z,26.00
2022-09-04T15:44:47.375Z,26.00
2022-09-04T15:47:35.972Z,25.80
2022-09-04T15:50:18.210Z,25.00
2022-09-04T15:53:27.049Z,23.90
2022-09-04T15:56:06.967Z,24.60
2022-09-04T15:58:46.427Z,24.60
2022-09-04T16:01:21.073Z,24.20
2022-09-04T16:04:23.637Z,24.30
2022-09-04T16:06:58.873Z,24.20
2022-09-04T16:09:48.326Z,24.30
2022-09-04T16:12:27.860Z,24.70
2022-09-04T16:15:21.233Z,25.10
2022-09-04T16:17:55.191Z,25.00
2022-09-04T16:20:38.142Z,25.20
2022-09-04T16:23:10.316Z,24.50
2022-09-04T16:25:49.699Z,23.90
2022-09-04T16:28:33.214Z,24.10
2022-09-04T16:31:12.979Z,24.30
2022-09-04T16:33:53.424Z,24.20
2022-09-04T16:36:25.731Z,26.00
2022-09-04T16:39:19.553Z,25.80
2022-09-04T16:41:49.862Z,24.90
2022-09-04T16:44:45.345Z,25.90
2022-09-04T16:47:26.358Z,24.50
2022-09-04T16:50:18.856Z,24.50
2022-09-04T16:53:17.539Z,24.60
2022-09-04T16:56:12.879Z,24.50
2022-09-04T16:58:56.572Z,24.50
2022-09-04T17:01:42.869Z,24.40
2022-09-04T17:04:14.366Z,24.30
2022-09-04T17:06:54.357Z,24.50
2022-09-04T17:10:05.934Z,24.40
2022-09-04T17:13:15.732Z,24.40
2022-09-04T17:15:55.391Z,24.10
2022-09-04T17:18:24.618Z,24.10
2022-09-04T17:23:57.664Z,25.30
2022-09-04T17:28:59.749Z,26.10
2022-09-04T17:29:13.597Z,24.10
2022-09-04T17:30:07.095Z,24.40
2022-09-04T17:35:18.774Z,24.30
2022-09-04T17:40:36.704Z,23.60
2022-09-04T17:40:56.732Z,24.20
2022-09-04T17:42:27.823Z,24.30
2022-09-04T17:45:32.128Z,24.20
2022-09-04T17:48:25.022Z,24.20
2022-09-04T17:50:59.604Z,24.20
2022-09-04T17:53:34.499Z,23.80
2022-09-04T17:56:38.013Z,25.70
2022-09-04T17:59:30.675Z,23.80
2022-09-04T18:02:28.257Z,23.70
2022-09-04T18:05:03.482Z,23.50
2022-09-04T18:08:09.851Z,23.50
2022-09-04T18:11:07.312Z,23.60
2022-09-04T18:13:42.002Z,23.50
2022-09-04T18:17:12.458Z,23.90
2022-09-04T18:19:48.840Z,23.40
2022-09-04T18:22:59.009Z,23.40
2022-09-04T18:25:35.081Z,23.40
2022-09-04T18:28:42.486Z,22.50
2022-09-04T18:37:05.307Z,23.20
2022-09-04T18:37:23.603Z,23.20
2022-09-04T18:37:47.333Z,23.10
2022-09-04T18:41:26.657Z,23.10
2022-09-04T18:49:32.464Z,23.10
2022-09-04T18:50:28.625Z,22.90
2022-09-04T18:50:34.792Z,23.00
2022-09-04T18:52:04.691Z,23.60
2022-09-04T18:55:08.954Z,21.80
2022-09-04T18:57:49.107Z,23.20
2022-09-04T19:00:33.394Z,22.70
2022-09-04T19:03:29.822Z,22.90
2022-09-04T19:06:10.762Z,23.00
2022-09-04T19:08:47.305Z,22.80
2022-09-04T19:11:41.585Z,22.80
2022-09-04T19:14:18.888Z,22.70
2022-09-04T19:16:58.569Z,22.70
2022-09-04T19:19:35.645Z,22.60
2022-09-04T19:22:28.162Z,22.60
2022-09-04T19:25:21.254Z,21.60
2022-09-04T19:28:16.480Z,22.60
2022-09-04T19:31:04.400Z,22.40
2022-09-04T19:33:41.645Z,22.40
2022-09-04T19:36:34.778Z,22.50
2022-09-04T19:46:01.784Z,22.50
2022-09-04T19:46:06.998Z,22.10
2022-09-04T19:46:24.979Z,22.50
2022-09-04T19:52:32.182Z,22.40
2022-09-04T19:53:34.523Z,22.20
2022-09-04T19:55:55.465Z,22.40
2022-09-04T19:58:43.984Z,22.20
2022-09-04T20:01:23.928Z,22.60
2022-09-04T20:04:00.755Z,22.50
2022-09-04T20:07:09.851Z,22.30
2022-09-04T20:09:45.609Z,22.20
2022-09-04T20:12:26.031Z,22.00
2022-09-04T20:15:03.711Z,22.10
2022-09-04T20:18:04.211Z,22.10
2022-09-04T20:21:18.025Z,22.50
2022-09-04T20:24:01.898Z,22.00
2022-09-04T20:26:35.978Z,21.80
2022-09-04T20:29:17.053Z,23.30
2022-09-04T20:31:52.990Z,21.90
2022-09-04T20:34:31.751Z,22.00
2022-09-04T20:37:39.267Z,21.90
2022-09-04T20:40:41.614Z,21.90
2022-09-04T20:43:26.775Z,22.00
2022-09-04T20:47:30.716Z,21.90
2022-09-04T20:52:54.580Z,21.00
2022-09-04T20:52:57.197Z,21.70
2022-09-04T20:55:49.745Z,23.80
2022-09-04T21:03:05.648Z,21.70
2022-09-04T21:03:19.491Z,21.70
2022-09-04T21:05:03.020Z,23.60
2022-09-04T21:07:42.865Z,21.60
2022-09-04T21:10:57.399Z,21.80
2022-09-04T21:13:51.024Z,21.60
2022-09-04T21:17:16.991Z,21.60
2022-09-04T21:20:30.876Z,21.50
2022-09-04T21:23:28.572Z,22.10
2022-09-04T21:26:30.332Z,21.40
2022-09-04T21:29:24.313Z,21.30
2022-09-04T21:32:43.729Z,21.30
2022-09-04T21:35:32.154Z,21.40
2022-09-04T21:38:23.146Z,21.40
2022-09-04T21:41:35.176Z,21.10
2022-09-04T21:44:34.563Z,21.40
2022-09-04T21:48:02.533Z,21.20
2022-09-04T21:50:44.623Z,22.50
2022-09-04T21:53:54.819Z,20.90
2022-09-04T22:02:30.784Z,21.10
2022-09-04T22:02:42.249Z,21.10
2022-09-04T22:03:15.147Z,21.20
2022-09-04T22:05:59.865Z,21.20
2022-09-04T22:13:29.187Z,21.10
2022-09-04T22:13:42.209Z,21.00
2022-09-04T22:15:10.014Z,21.00
2022-09-04T22:18:07.222Z,21.00
2022-09-04T22:20:53.709Z,21.00
2022-09-04T22:23:57.778Z,20.90
2022-09-04T22:26:48.361Z,20.90
2022-09-04T22:29:53.978Z,20.90
2022-09-04T22:32:48.090Z,20.80
2022-09-04T22:35:50.344Z,22.90
2022-09-04T22:39:08.062Z,20.80
2022-09-04T22:42:20.260Z,20.80
2022-09-04T22:45:17.742Z,20.70
2022-09-04T22:48:31.601Z,20.60
2022-09-04T22:51:23.413Z,20.60
2022-09-04T22:54:21.427Z,21.50
2022-09-04T22:56:54.206Z,20.60
2022-09-04T23:00:11.058Z,20.50
2022-09-04T23:03:07.120Z,20.50
2022-09-04T23:06:27.426Z,20.60
2022-09-04T23:13:53.396Z,20.60
2022-09-04T23:13:58.088Z,20.50
2022-09-04T23:16:36.167Z,20.50
2022-09-04T23:26:33.254Z,20.40
2022-09-04T23:26:43.056Z,20.40
2022-09-04T23:26:53.127Z,20.30
2022-09-04T23:29:06.524Z,21.60
2022-09-04T23:32:10.251Z,20.40
2022-09-04T23:35:14.650Z,20.30
2022-09-04T23:38:17.684Z,19.90
2022-09-04T23:41:31.132Z,19.80
2022-09-04T23:44:44.765Z,20.20
2022-09-04T23:47:48.596Z,21.00
2022-09-04T23:50:29.022Z,20.20
2022-09-04T23:53:44.680Z,20.10
2022-09-04T23:56:16.169Z,20.10
2022-09-04T23:59:38.008Z,20.00
